Stephens Gap, OK

11:34 PM CST on February 20, 2017 (GMT -0600)
MBKDO2 | | Change Station
Active Advisory: Dense Fog Advisory

Elev 646 ft 34.14 °N, 94.68 °W | Updated 2 hours ago

Fog
Fog
58.0 °F
Feels Like 58.0 °F
N
1.0
Wind Variable Wind from NNE

Today
High -- | Low -- °F
--% Chance of Precip.
Yesterday
High -- | Low -- °F
Precip. -- in
Pressure 29.90 in
Visibility 0.2 miles
Clouds
Dew Point 57.0 °F
Humidity 98%
Rainfall in
Snow Depth Not available.
6:57 AM 6:07 PM
Waning Crescent, 28% visible
METAR KDEQ 210453Z AUTO 00000KT 1/4SM FG VV002 14/14 A2990 RMK AO2 SLP124 T01390139
Pressure 29.90 in
Visibility 0.2 miles
Clouds
Dew Point 57.0 °F
Humidity 98%
Rainfall in
Snow Depth Not available.
6:57 AM 6:07 PM
Waning Crescent, 28% visible
METAR KDEQ 210453Z AUTO 00000KT 1/4SM FG VV002 14/14 A2990 RMK AO2 SLP124 T01390139

Get Your Daily Forecast Email!

Thanks for signing up!

Be on the lookout for a verification email in your inbox.

You'll start receiving the daily forecast at 8 AM.

×

10-Day Weather Forecast

Almanac

Astronomy

Feb. 20, 2017 Rise Set
Actual Time
Civil Twilight
Nautical Twilight
Astronomical Twilight
Moon
Length of Visible Light
Length of Day
Tomorrow will be .
, % of the Moon is Illuminated

Today's Extremes

State Highs State Lows

Community

WunderPhotos

Upload Photos

1,962,540 photos uploaded!

WunderBlog® & News

Nearby

Air Quality

  Air Quality AQ Index Pollutant
Not available.

Snow Depth

Station Depth Elevation

Earthquake Activity

City Distance Mag. Time & Date
Minimum magnitude displayed is 2.5.

Coastal Water Temperatures

Place Temperature

Stations

Nearby Weather Stations

Station Location Temp. Windchill Dew Point Humidity Wind Precip. Elev Updated Type
                   

Watches & Warnings

Dense Fog Advisory
Issued: 10:59 PM CST Feb. 20, 2017 – National Weather Service

... Dense fog advisory in effect until 9 am CST Tuesday...

The National Weather Service in Shreveport has issued a dense fog
advisory, which will be in effect until 9 am CST Tuesday.

* Event... dense fog with visibility below one half mile.

* Timing... through 9 am CST Tuesday.

* Impact... changes in visibility on area roadways in low lying
areas, near bodies of water, such as lakes and bayous, and in
short distances will make driving/traveling hazardous.

Precautionary/preparedness actions...

A dense fog advisory means visibilities will frequently be
reduced to less than one quarter mile. If driving, slow down, use
your low beam headlights, and leave plenty of distance between
other vehicles ahead of you. Be alert to bus traffic and their
frequent stops during the morning commute.



06
06